Gargano — VSMW5 — position and weather

sailwx.info

Track history (hours):
 
Tides and Currents Weather Stations Pressure Air Temp Water Temp Dewpoint Dewpoint Depression Visibility Wind Speed Wind Dir Waves Ship Positions

Gargano

Last reported at 2017-Sep-24 08:04 UTC. Time now 2017-Sep-24 08:48 UTC.
Position N 48°39' W 002°01'.

Length 72 m; draft 5.3 m.

Type: Other ship. MMSI: 235362000.

Date/timePositionNaut miles runAvg speedWind from/ knotsBaromVisibWave heightAir tempDewpointWater temp
2017-Sep-24 08:04N 48°39' W 002°01'0 0.0
2017-Sep-24 07:16N 48°39' W 002°01'0 0.0
2017-Sep-24 06:58N 48°39' W 002°01'0 0.0
2017-Sep-24 06:25N 48°39' W 002°01'0 0.0
2017-Sep-24 05:58N 48°39' W 002°01'0 0.0
2017-Sep-24 05:28N 48°39' W 002°01'0 0.0
2017-Sep-24 04:58N 48°39' W 002°01'0 0.0
2017-Sep-24 04:28N 48°39' W 002°01'0 0.0
2017-Sep-24 03:58N 48°39' W 002°01'0 0.0
2017-Sep-24 03:28N 48°39' W 002°01'0 0.0
2017-Sep-24 02:58N 48°39' W 002°01'0 0.0
2017-Sep-24 01:55N 48°39' W 002°01'0 0.0
2017-Sep-24 01:28N 48°39' W 002°01'  
2017-Sep-21 03:26N 48°39' W 002°01'0 0.0
2017-Sep-21 02:44N 48°39' W 002°01'0 0.0
2017-Sep-21 02:17N 48°39' W 002°01'0 0.0
2017-Sep-21 01:50N 48°39' W 002°01'0 0.0
2017-Sep-21 01:29N 48°39' W 002°01'0 0.0
2017-Sep-21 00:59N 48°39' W 002°01'0 0.0
2017-Sep-21 00:29N 48°39' W 002°01'0 0.0
2017-Sep-20 23:53N 48°39' W 002°01'0 0.0
2017-Sep-20 23:29N 48°39' W 002°01'0 0.0
2017-Sep-20 22:44N 48°39' W 002°01'0 0.0
2017-Sep-20 13:56N 48°39' W 002°01'0 0.0
2017-Sep-20 13:08N 48°39' W 002°01'0 0.0
2017-Sep-20 12:53N 48°39' W 002°01'0 0.0
2017-Sep-20 12:29N 48°39' W 002°01'0 0.0
2017-Sep-20 11:59N 48°39' W 002°01'0 0.0
2017-Sep-20 10:35N 48°39' W 002°01'0 0.0
2017-Sep-20 10:20N 48°39' W 002°01'0 0.0
2017-Sep-20 09:53N 48°39' W 002°01'0 0.0
2017-Sep-20 09:20N 48°39' W 002°01'0 0.0
2017-Sep-20 08:59N 48°39' W 002°01'0 0.0
2017-Sep-20 08:29N 48°39' W 002°01'0 0.0
2017-Sep-20 06:57N 48°39' W 002°01'1 1.0
2017-Sep-20 06:26N 48°38' W 002°02'5 8.6
2017-Sep-20 05:54N 48°42' W 002°07'2 3.7
2017-Sep-20 05:26N 48°43' W 002°08'1 2.3
2017-Sep-20 05:00N 48°43' W 002°06'0 0.3
2017-Sep-20 04:30N 48°43' W 002°06'2 3.1
2017-Sep-20 03:59N 48°44' W 002°08'2 3.2
2017-Sep-20 03:27N 48°45' W 002°10'2 3.8
2017-Sep-20 02:51N 48°47' W 002°13'1 3.0
2017-Sep-20 02:21N 48°48' W 002°14'1 2.8
2017-Sep-20 02:00N 48°48' W 002°16'  
Track history (hours):
 
Tides and Currents Weather Stations Pressure Air Temp Water Temp Dewpoint Dewpoint Depression Visibility Wind Speed Wind Dir Waves Ship Positions

Gargano

Last reported at 2017-Sep-24 08:04 UTC. Time now 2017-Sep-24 08:48 UTC.
Position N 48°39' W 002°01'.

Length 72 m; draft 5.3 m.

Type: Other ship. MMSI: 235362000.

Date/timePositionNaut miles runAvg speedWind from/ knotsBaromVisibWave heightAir tempDewpointWater temp
2017-Sep-24 08:04N 48°39' W 002°01'0 0.0
2017-Sep-24 07:16N 48°39' W 002°01'0 0.0
2017-Sep-24 06:58N 48°39' W 002°01'0 0.0
2017-Sep-24 06:25N 48°39' W 002°01'0 0.0
2017-Sep-24 05:58N 48°39' W 002°01'0 0.0
2017-Sep-24 05:28N 48°39' W 002°01'0 0.0
2017-Sep-24 04:58N 48°39' W 002°01'0 0.0
2017-Sep-24 04:28N 48°39' W 002°01'0 0.0
2017-Sep-24 03:58N 48°39' W 002°01'0 0.0
2017-Sep-24 03:28N 48°39' W 002°01'0 0.0
2017-Sep-24 02:58N 48°39' W 002°01'0 0.0
2017-Sep-24 01:55N 48°39' W 002°01'0 0.0
2017-Sep-24 01:28N 48°39' W 002°01'  
2017-Sep-21 03:26N 48°39' W 002°01'0 0.0
2017-Sep-21 02:44N 48°39' W 002°01'0 0.0
2017-Sep-21 02:17N 48°39' W 002°01'0 0.0
2017-Sep-21 01:50N 48°39' W 002°01'0 0.0
2017-Sep-21 01:29N 48°39' W 002°01'0 0.0
2017-Sep-21 00:59N 48°39' W 002°01'0 0.0
2017-Sep-21 00:29N 48°39' W 002°01'0 0.0
2017-Sep-20 23:53N 48°39' W 002°01'0 0.0
2017-Sep-20 23:29N 48°39' W 002°01'0 0.0
2017-Sep-20 22:44N 48°39' W 002°01'0 0.0
2017-Sep-20 13:56N 48°39' W 002°01'0 0.0
2017-Sep-20 13:08N 48°39' W 002°01'0 0.0
2017-Sep-20 12:53N 48°39' W 002°01'0 0.0
2017-Sep-20 12:29N 48°39' W 002°01'0 0.0
2017-Sep-20 11:59N 48°39' W 002°01'0 0.0
2017-Sep-20 10:35N 48°39' W 002°01'0 0.0
2017-Sep-20 10:20N 48°39' W 002°01'0 0.0
2017-Sep-20 09:53N 48°39' W 002°01'0 0.0
2017-Sep-20 09:20N 48°39' W 002°01'0 0.0
2017-Sep-20 08:59N 48°39' W 002°01'0 0.0
2017-Sep-20 08:29N 48°39' W 002°01'0 0.0
2017-Sep-20 06:57N 48°39' W 002°01'1 1.0
2017-Sep-20 06:26N 48°38' W 002°02'5 8.6
2017-Sep-20 05:54N 48°42' W 002°07'2 3.7
2017-Sep-20 05:26N 48°43' W 002°08'1 2.3
2017-Sep-20 05:00N 48°43' W 002°06'0 0.3
2017-Sep-20 04:30N 48°43' W 002°06'2 3.1
2017-Sep-20 03:59N 48°44' W 002°08'2 3.2
2017-Sep-20 03:27N 48°45' W 002°10'2 3.8
2017-Sep-20 02:51N 48°47' W 002°13'1 3.0
2017-Sep-20 02:21N 48°48' W 002°14'1 2.8
2017-Sep-20 02:00N 48°48' W 002°16'  

Dump ship's entire track history